Time;durP1;ratioP1;P1;durP2;ratioP2;P2;SDS_P1;SDS_P2;PMS_P1;PMS_P2;Temp;Humidity;BMP_temperature;BMP_pressure;BME280_temperature;BME280_humidity;BME280_pressure;Samples;Min_cycle;Max_cycle;Signal;HPM_P1;HPM_P2
2023/04/19 00:00:17;;;;;;;5.00;4.03;;;;;;;12.54;67.83;102016.69;5018745;28;20033;-68
2023/04/19 00:02:42;;;;;;;7.43;4.32;;;;;;;12.54;67.47;102006.34;5022170;28;20049;-67
2023/04/19 00:05:08;;;;;;;5.85;3.88;;;;;;;12.53;67.26;102002.00;5017884;28;20029;-68
2023/04/19 00:07:34;;;;;;;5.15;3.58;;;;;;;12.53;67.61;102011.50;5010360;28;20095;-68
2023/04/19 00:09:59;;;;;;;5.93;3.67;;;;;;;12.56;67.61;102003.72;5010935;28;20511;-68
2023/04/19 00:12:25;;;;;;;5.70;4.05;;;;;;;12.56;67.55;102002.00;5012075;28;20457;-68
2023/04/19 00:14:50;;;;;;;7.25;4.28;;;;;;;12.57;67.10;102002.88;5011107;28;20045;-68
2023/04/19 00:17:15;;;;;;;4.43;3.58;;;;;;;12.54;68.01;102024.47;5017509;28;20041;-68
2023/04/19 00:19:41;;;;;;;7.82;4.13;;;;;;;12.54;67.65;102014.09;5012905;28;20044;-68
2023/04/19 00:22:07;;;;;;;7.82;4.30;;;;;;;12.54;67.87;102013.25;5024188;28;20041;-69
2023/04/19 00:24:32;;;;;;;5.90;4.30;;;;;;;12.53;68.34;102008.91;5012701;28;20083;-68
2023/04/19 00:26:58;;;;;;;7.50;4.25;;;;;;;12.52;68.21;102007.19;5015284;28;20044;-68
2023/04/19 00:29:23;;;;;;;7.43;4.72;;;;;;;12.52;67.95;101995.09;5011623;28;20092;-66
2023/04/19 00:31:49;;;;;;;5.88;3.83;;;;;;;12.54;67.83;102000.28;5019355;28;20037;-68
2023/04/19 00:34:14;;;;;;;6.70;3.88;;;;;;;12.51;68.02;102001.13;5022665;28;20512;-68
2023/04/19 00:36:39;;;;;;;5.22;4.15;;;;;;;12.49;68.49;102005.47;5026538;28;20040;-68
2023/04/19 00:39:05;;;;;;;6.13;3.70;;;;;;;12.43;68.70;102002.84;5022936;28;20093;-68
2023/04/19 00:41:30;;;;;;;7.07;4.32;;;;;;;12.40;68.88;102005.41;5019944;28;20033;-68
2023/04/19 00:43:56;;;;;;;7.03;4.32;;;;;;;12.38;68.90;102005.41;5031319;28;20040;-68
2023/04/19 00:46:22;;;;;;;7.35;4.82;;;;;;;12.38;68.96;102001.94;5020930;28;20502;-68
2023/04/19 00:48:48;;;;;;;7.07;4.05;;;;;;;12.34;68.99;102003.69;5012509;28;20044;-68
2023/04/19 00:51:14;;;;;;;5.60;4.18;;;;;;;12.31;69.35;101997.59;5030132;28;20043;-68
2023/04/19 00:53:40;;;;;;;6.97;4.35;;;;;;;12.30;69.72;102004.50;5029059;28;20033;-68
2023/04/19 00:56:07;;;;;;;5.82;3.95;;;;;;;12.29;69.80;101997.59;5022760;28;20029;-68
2023/04/19 00:58:32;;;;;;;5.65;4.05;;;;;;;12.25;69.91;102001.03;5027370;28;20045;-69
2023/04/19 01:00:59;;;;;;;5.32;4.10;;;;;;;12.28;69.60;101988.09;5027358;28;20037;-68
2023/04/19 01:03:28;;;;;;;7.53;5.07;;;;;;;12.27;69.56;101981.16;5019174;28;20042;-68
2023/04/19 01:05:54;;;;;;;5.75;4.40;;;;;;;12.25;69.84;101982.03;5017766;28;20057;-68
2023/04/19 01:08:20;;;;;;;6.68;4.50;;;;;;;12.17;70.15;101983.69;5019935;28;20033;-68
2023/04/19 01:10:45;;;;;;;6.85;4.00;;;;;;;12.07;70.11;101980.22;5021448;28;20115;-68
2023/04/19 01:13:10;;;;;;;6.40;4.75;;;;;;;11.94;71.03;101988.78;5022901;28;20041;-68
2023/04/19 01:15:36;;;;;;;7.75;4.15;;;;;;;11.78;71.34;101990.41;5016428;28;20034;-68
2023/04/19 01:18:01;;;;;;;7.15;4.38;;;;;;;11.69;71.38;101985.16;5020142;28;20056;-68
2023/04/19 01:20:27;;;;;;;5.55;4.60;;;;;;;11.56;72.45;101993.72;5017451;28;20517;-68
2023/04/19 01:22:52;;;;;;;7.07;5.13;;;;;;;11.53;71.97;101993.69;5019856;28;20129;-68
2023/04/19 01:25:18;;;;;;;6.75;5.13;;;;;;;11.52;72.93;101997.13;5023529;28;20411;-68
2023/04/19 01:27:43;;;;;;;6.47;5.00;;;;;;;11.43;73.50;101993.56;5020646;28;20060;-68
2023/04/19 01:30:09;;;;;;;6.93;4.80;;;;;;;11.36;73.46;101987.50;5024809;28;20060;-68
2023/04/19 01:32:35;;;;;;;6.25;4.75;;;;;;;11.25;74.38;101977.03;5021761;28;20041;-68
2023/04/19 01:35:00;;;;;;;10.90;5.68;;;;;;;11.12;74.75;101985.56;5023708;28;20026;-68
2023/04/19 01:37:25;;;;;;;9.13;4.93;;;;;;;11.02;75.02;101980.28;5028152;28;20045;-68
2023/04/19 01:39:51;;;;;;;7.07;5.40;;;;;;;10.92;75.66;101992.25;5032684;28;20052;-69
2023/04/19 01:42:16;;;;;;;7.47;5.40;;;;;;;10.83;76.26;101991.31;4998357;28;20048;-68
2023/04/19 01:44:42;;;;;;;7.68;5.30;;;;;;;10.80;76.03;101984.41;5012223;28;20121;-68
2023/04/19 01:47:07;;;;;;;10.38;5.82;;;;;;;10.76;76.06;101983.50;5022617;28;20048;-69
2023/04/19 01:49:32;;;;;;;8.45;5.30;;;;;;;10.74;76.30;101971.41;5022927;28;20434;-68
2023/04/19 01:51:58;;;;;;;7.07;5.68;;;;;;;10.77;76.30;101976.63;5008409;28;20873;-69
2023/04/19 01:54:23;;;;;;;8.77;5.40;;;;;;;10.80;76.87;101963.72;5017113;28;20045;-68
2023/04/19 01:56:48;;;;;;;7.60;5.30;;;;;;;10.78;76.72;101970.56;5023007;28;20029;-68
2023/04/19 01:59:14;;;;;;;7.28;5.25;;;;;;;10.74;76.14;101974.84;5022854;28;20116;-68
2023/04/19 02:01:39;;;;;;;9.82;5.97;;;;;;;10.70;76.58;101970.50;5020396;28;20051;-68
2023/04/19 02:04:06;;;;;;;8.48;5.70;;;;;;;10.66;76.96;101968.72;5028191;28;20041;-68
2023/04/19 02:06:31;;;;;;;6.93;5.15;;;;;;;10.62;77.48;101964.38;5023291;28;20044;-69
2023/04/19 02:08:57;;;;;;;9.93;5.70;;;;;;;10.63;77.41;101967.81;5041413;28;20040;-68
2023/04/19 02:11:22;;;;;;;8.88;6.43;;;;;;;10.65;77.30;101966.97;5020820;28;20552;-68
2023/04/19 02:13:48;;;;;;;7.78;5.72;;;;;;;10.68;77.72;101966.19;5023288;28;20747;-68
2023/04/19 02:16:13;;;;;;;11.00;6.80;;;;;;;10.71;77.44;101950.69;5018346;28;20207;-68
2023/04/19 02:18:39;;;;;;;8.50;6.35;;;;;;;10.74;77.46;101961.91;5018819;28;20045;-68
2023/04/19 02:21:05;;;;;;;9.40;6.18;;;;;;;10.77;77.68;101950.75;5019369;28;20082;-68
2023/04/19 02:23:31;;;;;;;8.20;6.55;;;;;;;10.77;77.69;101959.34;5029595;28;20043;-68
2023/04/19 02:25:56;;;;;;;8.35;6.30;;;;;;;10.79;77.84;101949.03;5023161;28;20617;-68
2023/04/19 02:28:22;;;;;;;10.88;6.90;;;;;;;10.79;77.40;101952.50;5022453;28;20036;-69
2023/04/19 02:30:47;;;;;;;8.02;5.93;;;;;;;10.79;77.90;101947.31;5014465;28;20438;-68
2023/04/19 02:33:14;;;;;;;9.35;5.53;;;;;;;10.79;77.31;101952.50;5018489;28;20041;-69
2023/04/19 02:35:39;;;;;;;9.85;6.60;;;;;;;10.76;78.05;101961.94;5028683;28;20033;-68
2023/04/19 02:38:04;;;;;;;10.40;5.88;;;;;;;10.74;77.83;101951.56;5027248;28;20040;-68
2023/04/19 02:40:30;;;;;;;8.50;6.20;;;;;;;10.78;77.67;101955.06;5012158;28;20055;-68
2023/04/19 02:42:55;;;;;;;11.25;7.57;;;;;;;10.84;77.67;101962.00;5013778;28;20036;-68
2023/04/19 02:45:21;;;;;;;10.48;6.70;;;;;;;10.83;77.98;101956.00;5022777;28;20041;-68
2023/04/19 02:47:46;;;;;;;9.52;6.72;;;;;;;10.85;78.03;101953.41;5025919;28;20108;-68
2023/04/19 02:50:13;;;;;;;10.57;6.75;;;;;;;10.87;77.90;101960.31;5017030;28;20056;-68
2023/04/19 02:52:39;;;;;;;11.40;7.10;;;;;;;10.84;78.69;101960.28;5009720;28;20092;-68
2023/04/19 02:55:05;;;;;;;11.23;7.28;;;;;;;10.82;79.53;101955.97;5016255;28;20033;-68
2023/04/19 02:57:30;;;;;;;9.88;6.57;;;;;;;10.80;80.04;101951.63;5028694;28;20037;-68
2023/04/19 02:59:56;;;;;;;12.13;6.82;;;;;;;10.78;79.89;101948.16;5024929;28;20041;-68
2023/04/19 03:02:21;;;;;;;11.35;7.93;;;;;;;10.77;80.67;101951.59;5027171;28;20213;-68
2023/04/19 03:04:47;;;;;;;9.45;7.22;;;;;;;10.76;81.44;101946.41;5015678;28;20037;-68
2023/04/19 03:07:13;;;;;;;12.75;7.90;;;;;;;10.81;80.40;101944.75;5008979;28;20025;-68
2023/04/19 03:09:38;;;;;;;9.25;6.97;;;;;;;10.86;80.24;101944.78;5025643;28;20026;-68
2023/04/19 03:12:06;;;;;;;10.15;7.32;;;;;;;10.89;79.98;101947.41;5018755;28;20044;-68
2023/04/19 03:14:32;;;;;;;12.90;6.68;;;;;;;10.91;79.76;101937.94;5022776;28;20087;-68
2023/04/19 03:16:58;;;;;;;10.82;7.30;;;;;;;10.94;79.36;101928.50;5018452;28;20088;-70
2023/04/19 03:19:23;;;;;;;11.60;7.18;;;;;;;10.97;80.25;101932.81;5014956;28;20049;-70
2023/04/19 03:21:49;;;;;;;10.85;7.72;;;;;;;10.97;79.97;101933.69;5016493;28;20128;-70
2023/04/19 03:24:14;;;;;;;10.50;7.82;;;;;;;10.98;80.08;101937.16;5008662;28;20042;-70
2023/04/19 03:26:40;;;;;;;9.38;7.13;;;;;;;10.98;79.88;101926.81;5017476;28;20540;-70
2023/04/19 03:29:05;;;;;;;10.88;7.43;;;;;;;10.95;80.54;101932.78;5014207;28;20152;-70
2023/04/19 03:31:31;;;;;;;9.32;6.68;;;;;;;10.91;80.60;101919.84;5017120;28;20034;-70
2023/04/19 03:33:56;;;;;;;10.23;7.43;;;;;;;10.90;80.90;101921.53;5020174;28;20044;-70
2023/04/19 03:36:21;;;;;;;11.27;6.32;;;;;;;10.98;80.79;101922.47;5016749;28;20041;-69
2023/04/19 03:38:47;;;;;;;12.07;7.95;;;;;;;11.00;80.27;101920.78;5030804;28;20422;-70
2023/04/19 03:41:39;;;;;;;9.43;7.10;;;;;;;11.01;80.86;101924.25;5007672;28;20554;-70
2023/04/19 03:44:04;;;;;;;8.95;6.45;;;;;;;11.03;81.07;101920.81;5013992;28;20046;-70
2023/04/19 03:46:32;;;;;;;9.98;7.10;;;;;;;11.10;80.71;101916.56;5032943;28;20056;-70
2023/04/19 03:48:58;;;;;;;11.43;7.07;;;;;;;11.16;80.50;101916.56;5007136;28;20160;-70
2023/04/19 03:51:23;;;;;;;9.55;6.97;;;;;;;11.18;80.31;101909.72;5015923;28;20930;-70
2023/04/19 03:53:49;;;;;;;12.80;7.90;;;;;;;11.20;79.92;101915.75;5019039;28;20048;-69
2023/04/19 03:56:14;;;;;;;10.98;6.97;;;;;;;11.21;80.43;101915.78;5020560;28;20492;-70
2023/04/19 03:58:40;;;;;;;12.68;7.80;;;;;;;11.20;80.30;101916.63;5024318;28;20045;-70
2023/04/19 04:01:07;;;;;;;10.20;6.70;;;;;;;11.21;80.24;101915.78;5020108;28;20033;-70
2023/04/19 04:03:33;;;;;;;9.85;6.72;;;;;;;11.19;80.91;101924.34;5021644;28;20041;-70
2023/04/19 04:05:58;;;;;;;10.93;7.15;;;;;;;11.16;81.18;101917.44;5035148;28;20363;-68
2023/04/19 04:08:23;;;;;;;11.85;8.10;;;;;;;11.17;81.01;101920.91;5031822;28;20461;-68
2023/04/19 04:10:49;;;;;;;11.52;7.18;;;;;;;11.15;81.00;101923.50;5020902;28;20634;-68
2023/04/19 04:13:14;;;;;;;9.27;6.63;;;;;;;11.18;81.05;101926.09;5020559;28;20148;-68
2023/04/19 04:15:40;;;;;;;12.82;7.57;;;;;;;11.15;81.47;101931.25;5021031;28;20104;-68
2023/04/19 04:18:05;;;;;;;12.55;7.75;;;;;;;11.14;81.56;101933.81;5016017;28;20607;-67
2023/04/19 04:20:30;;;;;;;12.13;8.48;;;;;;;11.12;81.85;101933.81;5018065;28;20056;-68
2023/04/19 04:22:56;;;;;;;11.63;7.07;;;;;;;11.15;80.78;101926.09;5019771;28;20042;-66
2023/04/19 04:25:21;;;;;;;10.82;7.85;;;;;;;11.18;80.78;101930.41;5020273;28;20037;-66
2023/04/19 04:27:50;;;;;;;10.73;7.82;;;;;;;11.17;80.86;101934.72;5021739;28;20045;-66
2023/04/19 04:30:16;;;;;;;11.10;7.25;;;;;;;11.21;80.43;101931.31;5016895;28;20042;-66
2023/04/19 04:32:42;;;;;;;11.48;7.72;;;;;;;11.25;80.01;101933.03;5019394;28;20044;-66
2023/04/19 04:35:09;;;;;;;11.73;6.97;;;;;;;11.27;79.65;101933.06;5027109;28;20025;-66
2023/04/19 04:37:35;;;;;;;14.05;7.90;;;;;;;11.29;80.09;101931.34;5026969;28;20725;-66
2023/04/19 04:40:03;;;;;;;11.98;8.02;;;;;;;11.28;80.17;101927.88;5013151;28;20061;-66
2023/04/19 04:42:30;;;;;;;13.05;7.85;;;;;;;11.33;79.38;101922.75;5019832;28;20049;-66
2023/04/19 04:44:56;;;;;;;12.63;8.77;;;;;;;11.33;79.77;101927.94;5023133;28;20033;-66
2023/04/19 04:47:23;;;;;;;12.77;7.80;;;;;;;11.33;79.43;101918.47;5020928;28;20707;-66
2023/04/19 04:49:48;;;;;;;14.20;8.23;;;;;;;11.37;79.46;101924.50;5018227;28;20046;-66
2023/04/19 04:52:14;;;;;;;13.57;8.32;;;;;;;11.39;79.50;101924.53;5014648;28;20038;-66
2023/04/19 04:54:39;;;;;;;13.80;8.15;;;;;;;11.38;79.14;101923.66;5023103;28;20033;-66
2023/04/19 04:57:05;;;;;;;13.55;9.38;;;;;;;11.40;79.05;101923.66;5023235;28;20039;-69
2023/04/19 04:59:30;;;;;;;13.77;9.07;;;;;;;11.39;79.29;101927.09;5014693;28;20419;-66
2023/04/19 05:01:56;;;;;;;14.75;8.40;;;;;;;11.38;79.02;101927.94;5013440;28;20049;-66
2023/04/19 05:04:21;;;;;;;12.95;8.48;;;;;;;11.42;79.30;101915.06;5020138;28;20044;-66
2023/04/19 05:06:46;;;;;;;14.85;9.40;;;;;;;11.46;79.16;101914.22;5017904;28;20049;-66
2023/04/19 05:09:12;;;;;;;15.93;9.10;;;;;;;11.46;79.05;101911.66;5019495;28;20076;-66
2023/04/19 05:11:37;;;;;;;13.20;9.15;;;;;;;11.45;78.73;101917.69;5014347;28;20049;-66
2023/04/19 05:14:03;;;;;;;13.02;8.30;;;;;;;11.39;79.31;101911.56;5021957;28;20152;-66
2023/04/19 05:16:29;;;;;;;18.17;9.57;;;;;;;11.38;79.67;101922.78;5014280;28;20060;-66
2023/04/19 05:18:54;;;;;;;10.40;7.97;;;;;;;11.34;79.26;101914.13;5019562;28;20060;-66
2023/04/19 05:21:20;;;;;;;12.50;8.32;;;;;;;11.35;79.57;101916.72;5006020;28;20773;-66
2023/04/19 05:23:46;;;;;;;14.63;8.57;;;;;;;11.37;79.36;101914.13;5013470;28;20033;-67
2023/04/19 05:26:13;;;;;;;11.82;8.50;;;;;;;11.41;79.32;101908.13;5018913;28;20079;-66
2023/04/19 05:28:39;;;;;;;12.48;9.02;;;;;;;11.42;79.42;101914.19;5021205;28;20061;-66
2023/04/19 05:31:05;;;;;;;11.90;8.65;;;;;;;11.49;78.62;101915.97;5019001;28;20042;-65
2023/04/19 05:33:31;;;;;;;12.88;8.57;;;;;;;11.50;78.77;101916.00;5023162;28;20037;-67
2023/04/19 05:35:57;;;;;;;12.88;7.88;;;;;;;11.49;78.80;101911.66;5009152;28;20044;-66
2023/04/19 05:38:22;;;;;;;12.95;8.63;;;;;;;11.48;78.94;101919.44;5019025;28;20033;-66
2023/04/19 05:40:47;;;;;;;13.20;9.15;;;;;;;11.48;79.37;101919.44;5014899;28;20042;-66
2023/04/19 05:43:13;;;;;;;12.95;9.50;;;;;;;11.48;79.39;101916.84;5017764;28;20045;-66
2023/04/19 05:45:38;;;;;;;17.38;9.27;;;;;;;11.49;79.78;101916.84;5026098;28;20371;-67
2023/04/19 05:48:04;;;;;;;14.52;8.93;;;;;;;11.51;79.49;101909.09;5019355;28;21060;-66
2023/04/19 05:50:29;;;;;;;13.88;9.10;;;;;;;11.53;79.67;101907.38;5019353;28;20039;-67
2023/04/19 05:52:54;;;;;;;13.00;8.57;;;;;;;11.58;79.68;101909.13;5010884;28;20461;-66
2023/04/19 05:55:20;;;;;;;12.70;8.75;;;;;;;11.61;78.95;101895.34;5008415;28;20041;-67
2023/04/19 05:57:45;;;;;;;10.55;8.52;;;;;;;11.64;79.04;101904.00;5013412;28;20403;-67
2023/04/19 06:00:11;;;;;;;10.77;7.60;;;;;;;11.66;78.45;101897.09;5012730;28;20513;-66
2023/04/19 06:02:37;;;;;;;13.48;9.07;;;;;;;11.68;78.63;101902.28;5000300;28;20124;-66
2023/04/19 06:05:03;;;;;;;11.73;7.93;;;;;;;11.69;79.03;101904.88;5016406;28;20524;-66
2023/04/19 06:07:31;;;;;;;11.55;8.05;;;;;;;11.72;78.63;101901.47;5021985;28;20056;-67
2023/04/19 06:09:57;;;;;;;12.65;7.82;;;;;;;11.74;78.46;101905.78;5022011;28;20040;-66
2023/04/19 06:12:22;;;;;;;11.02;8.10;;;;;;;11.77;78.91;101899.75;5014608;28;20049;-66
2023/04/19 06:14:47;;;;;;;12.02;8.32;;;;;;;11.80;78.67;101904.94;5021983;28;20044;-66
2023/04/19 06:17:15;;;;;;;15.07;8.30;;;;;;;11.80;78.70;101911.00;5017150;28;20032;-66
2023/04/19 06:19:41;;;;;;;12.02;8.27;;;;;;;11.83;78.79;101910.13;5016171;28;20045;-66
2023/04/19 06:22:06;;;;;;;11.00;8.25;;;;;;;11.85;78.39;101908.41;5014143;28;20586;-66
2023/04/19 06:24:31;;;;;;;17.45;9.88;;;;;;;11.88;78.26;101911.88;5010819;28;20642;-67
2023/04/19 06:26:57;;;;;;;13.55;9.07;;;;;;;11.88;78.25;101916.19;5019662;28;20043;-66
2023/04/19 06:29:23;;;;;;;12.95;8.55;;;;;;;11.88;76.74;101911.00;5020957;28;20045;-67
2023/04/19 06:31:48;;;;;;;13.55;9.77;;;;;;;11.92;77.20;101914.50;5007731;28;20046;-66
2023/04/19 06:34:14;;;;;;;16.85;10.85;;;;;;;11.92;77.09;101915.34;5014244;28;20741;-67
2023/04/19 06:36:39;;;;;;;15.27;9.52;;;;;;;11.95;77.05;101915.38;5015037;28;20647;-66
2023/04/19 06:39:06;;;;;;;15.85;9.98;;;;;;;11.99;77.23;101909.31;5015398;28;20041;-67
2023/04/19 06:41:31;;;;;;;19.25;10.38;;;;;;;12.03;76.25;101908.50;5016710;28;20041;-67
2023/04/19 06:43:56;;;;;;;14.95;9.93;;;;;;;12.08;75.62;101911.13;5015124;28;20056;-67
2023/04/19 06:46:22;;;;;;;14.05;10.25;;;;;;;12.05;75.28;101893.81;5015032;28;20455;-66
2023/04/19 06:48:47;;;;;;;16.83;10.13;;;;;;;12.11;75.19;101899.00;5009994;28;20061;-66
2023/04/19 06:51:12;;;;;;;17.83;9.55;;;;;;;12.14;74.52;101895.59;5006914;28;20037;-67
2023/04/19 06:53:38;;;;;;;18.73;10.65;;;;;;;12.10;75.02;101880.88;5008729;28;20095;-67
2023/04/19 06:56:04;;;;;;;15.98;10.63;;;;;;;12.16;74.66;101888.66;5016900;28;20491;-67
2023/04/19 06:58:31;;;;;;;16.10;10.48;;;;;;;12.20;73.92;101883.50;5014283;28;20478;-67
2023/04/19 07:00:57;;;;;;;15.68;10.35;;;;;;;12.22;73.97;101883.50;5018849;28;20072;-67
2023/04/19 07:03:22;;;;;;;16.10;10.23;;;;;;;12.25;73.97;101883.50;5020017;28;20125;-66
2023/04/19 07:05:48;;;;;;;16.60;11.10;;;;;;;12.31;73.87;101878.34;5017466;28;20037;-67
2023/04/19 07:08:13;;;;;;;14.00;10.20;;;;;;;12.39;73.05;101861.06;5017503;28;20112;-68
2023/04/19 07:10:39;;;;;;;13.88;10.40;;;;;;;12.50;72.83;101861.94;5024734;28;20960;-67
2023/04/19 07:13:04;;;;;;;16.13;11.18;;;;;;;12.59;71.94;101846.38;5016588;28;20052;-68
2023/04/19 07:15:30;;;;;;;14.93;10.20;;;;;;;12.79;70.65;101838.63;5013302;28;20041;-67
2023/04/19 07:17:55;;;;;;;14.30;10.23;;;;;;;12.80;70.97;101842.94;5016373;28;20052;-68
2023/04/19 07:20:20;;;;;;;14.38;10.35;;;;;;;12.94;69.50;101813.50;5017864;28;20551;-68
2023/04/19 07:22:46;;;;;;;14.70;10.55;;;;;;;13.14;69.71;101836.03;5020770;28;20041;-67
2023/04/19 07:25:11;;;;;;;13.95;10.63;;;;;;;13.16;68.47;101809.19;5020411;28;20604;-67
2023/04/19 07:27:37;;;;;;;16.77;10.77;;;;;;;13.36;68.14;101807.41;5023006;28;20038;-67
2023/04/19 07:30:03;;;;;;;15.18;10.52;;;;;;;13.42;67.21;101786.59;5023268;28;20499;-67
2023/04/19 07:32:30;;;;;;;16.08;10.27;;;;;;;13.54;67.43;101801.28;5024415;28;20033;-67
2023/04/19 07:34:55;;;;;;;13.27;9.93;;;;;;;13.43;66.14;101777.94;5016095;28;20041;-67
2023/04/19 07:37:21;;;;;;;14.13;10.00;;;;;;;13.44;65.87;101778.81;5016248;28;20730;-67
2023/04/19 07:39:46;;;;;;;14.27;9.95;;;;;;;13.38;65.86;101778.84;5024046;28;20430;-66
2023/04/19 07:42:11;;;;;;;14.00;9.82;;;;;;;13.52;65.81;101770.13;5021723;28;20044;-66
2023/04/19 07:44:37;;;;;;;11.50;9.02;;;;;;;13.63;64.35;101751.88;5026814;28;20133;-68
2023/04/19 07:47:04;;;;;;;12.05;9.18;;;;;;;13.64;65.03;101765.72;5028208;28;20112;-67
2023/04/19 07:49:32;;;;;;;11.65;8.90;;;;;;;13.77;63.33;101734.47;5018708;28;20737;-66
2023/04/19 07:52:03;;;;;;;12.40;8.52;;;;;;;13.85;64.21;101761.28;5016790;28;20037;-67
2023/04/19 07:54:30;;;;;;;11.98;8.80;;;;;;;13.90;63.85;101749.13;5015828;28;20044;-67
2023/04/19 07:56:57;;;;;;;13.00;8.93;;;;;;;14.01;62.54;101742.09;5018660;28;20192;-66
2023/04/19 07:59:23;;;;;;;13.00;8.15;;;;;;;13.81;63.35;101756.09;5017737;28;20566;-67
2023/04/19 08:01:48;;;;;;;11.15;8.38;;;;;;;13.93;63.45;101758.63;5020820;28;20069;-67
2023/04/19 08:04:14;;;;;;;10.63;8.20;;;;;;;13.81;63.49;101753.50;5022755;28;20045;-67
2023/04/19 08:06:40;;;;;;;11.73;8.85;;;;;;;13.86;62.68;101738.78;5017053;28;20808;-66
2023/04/19 08:09:05;;;;;;;11.40;8.27;;;;;;;13.92;62.48;101741.31;5005067;28;20041;-66
2023/04/19 08:11:31;;;;;;;11.68;8.48;;;;;;;13.94;62.21;101726.56;5018886;28;20025;-67
2023/04/19 08:13:56;;;;;;;10.57;7.70;;;;;;;13.94;61.25;101713.56;4995603;28;20061;-66
2023/04/19 08:16:22;;;;;;;13.55;8.10;;;;;;;13.99;61.76;101733.47;5003195;28;20120;-66
2023/04/19 08:18:50;;;;;;;10.68;7.85;;;;;;;14.11;62.01;101740.31;5005447;28;21902;-66
2023/04/19 08:21:16;;;;;;;10.15;6.68;;;;;;;14.16;60.70;101709.94;5019010;28;20053;-66
2023/04/19 08:23:41;;;;;;;10.07;7.03;;;;;;;14.18;60.48;101708.19;5017741;28;20033;-66
2023/04/19 08:26:06;;;;;;;9.20;6.95;;;;;;;14.23;60.12;101688.22;5021297;28;20879;-66
2023/04/19 08:28:32;;;;;;;10.65;6.85;;;;;;;14.20;59.87;101688.25;5012360;28;20030;-67
2023/04/19 08:30:58;;;;;;;8.50;5.68;;;;;;;14.18;58.63;101670.94;5022121;28;20044;-67
2023/04/19 08:33:23;;;;;;;9.27;5.38;;;;;;;14.16;58.71;101665.72;5022276;28;20053;-67
2023/04/19 08:35:49;;;;;;;7.30;5.35;;;;;;;14.14;58.13;101657.09;5016671;28;20756;-68
2023/04/19 08:38:14;;;;;;;8.15;6.18;;;;;;;14.10;58.36;101664.03;5018592;28;20372;-68
2023/04/19 08:40:48;;;;;;;7.15;5.53;;;;;;;14.04;58.19;101668.44;5031476;28;20048;-67
2023/04/19 08:43:16;;;;;;;8.13;5.72;;;;;;;14.14;58.91;101667.50;5024412;28;20034;-68
2023/04/19 08:45:45;;;;;;;9.38;5.40;;;;;;;14.15;58.93;101678.75;5017005;28;20030;-67
2023/04/19 08:48:11;;;;;;;7.72;5.95;;;;;;;14.13;58.07;101661.41;5020019;28;20057;-67
2023/04/19 08:50:40;;;;;;;10.18;5.55;;;;;;;14.28;59.43;101693.34;5020891;28;20169;-67
2023/04/19 08:53:07;;;;;;;10.52;6.00;;;;;;;14.22;57.66;101655.28;5020155;28;20045;-68
2023/04/19 08:55:32;;;;;;;13.40;6.13;;;;;;;14.38;56.07;101624.81;5019134;28;20095;-67
2023/04/19 08:57:58;;;;;;;8.27;5.47;;;;;;;14.41;56.30;101630.84;5026688;28;20041;-67
2023/04/19 09:00:24;;;;;;;6.97;5.35;;;;;;;14.44;55.70;101615.22;5019385;28;21187;-67
2023/04/19 09:02:51;;;;;;;8.88;5.53;;;;;;;14.52;56.32;101622.94;5025510;28;20052;-68
2023/04/19 09:05:20;;;;;;;7.68;5.72;;;;;;;14.50;55.83;101622.97;5030598;28;20037;-67
2023/04/19 09:07:46;;;;;;;9.13;5.93;;;;;;;14.55;54.65;101600.34;5023676;28;20033;-66
2023/04/19 09:10:16;;;;;;;8.02;4.60;;;;;;;14.53;55.54;101606.44;5018913;28;20620;-67
2023/04/19 09:12:42;;;;;;;7.60;5.22;;;;;;;14.57;53.66;101575.16;5017675;28;20116;-67
2023/04/19 09:15:09;;;;;;;7.70;4.72;;;;;;;14.66;54.28;101590.66;5029135;28;20033;-67
2023/04/19 09:17:35;;;;;;;6.28;4.60;;;;;;;14.79;55.00;101611.34;5019742;28;20405;-67
2023/04/19 09:20:02;;;;;;;7.10;4.90;;;;;;;14.90;53.86;101589.50;5016084;28;20108;-66
2023/04/19 09:22:27;;;;;;;6.60;4.72;;;;;;;14.92;53.24;101572.13;5009237;28;20124;-68
2023/04/19 09:24:53;;;;;;;6.97;4.97;;;;;;;14.94;53.13;101572.97;5015383;28;20510;-67
2023/04/19 09:27:26;;;;;;;6.15;4.65;;;;;;;14.99;52.57;101552.94;5017458;28;20809;-66
2023/04/19 09:29:56;;;;;;;9.80;4.68;;;;;;;15.05;52.12;101554.59;5017240;28;20462;-67
2023/04/19 09:32:21;;;;;;;8.63;4.53;;;;;;;15.06;51.87;101538.97;5013381;28;20025;-67
2023/04/19 09:34:58;;;;;;;5.97;4.60;;;;;;;15.15;50.81;101522.34;5011874;28;20057;-67
2023/04/19 09:37:25;;;;;;;7.93;4.85;;;;;;;15.35;52.00;101541.13;5019623;28;20163;-68
2023/04/19 09:39:51;;;;;;;6.55;5.28;;;;;;;15.47;50.55;101525.28;5017759;28;20111;-67
2023/04/19 09:42:17;;;;;;;7.13;4.32;;;;;;;15.58;49.64;101499.06;5011699;28;20510;-68
2023/04/19 09:44:58;;;;;;;8.45;4.13;;;;;;;15.62;48.87;101485.09;5020789;28;20084;-68
2023/04/19 09:47:26;;;;;;;7.22;3.90;;;;;;;15.49;47.63;101465.34;5024377;28;20037;-68
2023/04/19 09:50:05;;;;;;;6.47;4.20;;;;;;;15.51;49.21;101510.47;5013433;28;20043;-68
2023/04/19 09:52:33;;;;;;;6.82;4.18;;;;;;;15.62;47.91;101477.25;5017913;28;20456;-68
2023/04/19 09:55:02;;;;;;;8.75;4.15;;;;;;;15.75;45.61;101431.91;5010037;28;20314;-68
2023/04/19 09:57:28;;;;;;;6.00;3.85;;;;;;;15.81;46.36;101452.63;5018639;28;20069;-68
2023/04/19 09:59:53;;;;;;;9.98;4.22;;;;;;;15.81;45.54;101452.63;5010185;28;20045;-68
2023/04/19 10:02:21;;;;;;;5.40;3.80;;;;;;;15.83;46.68;101463.00;5013804;28;20256;-68
2023/04/19 10:04:46;;;;;;;4.38;3.50;;;;;;;15.79;46.75;101457.00;5032666;28;20037;-67
2023/04/19 10:07:12;;;;;;;9.00;3.72;;;;;;;15.90;44.99;101428.13;5019646;28;20175;-67
2023/04/19 10:09:48;;;;;;;5.97;4.32;;;;;;;15.89;46.26;101453.34;5107192;27;21222;-66
2023/04/19 10:12:15;;;;;;;7.72;4.18;;;;;;;15.86;47.13;101476.00;5078314;28;20061;-67
2023/04/19 10:14:41;;;;;;;4.45;3.60;;;;;;;15.95;45.13;101421.06;5073593;28;20036;-67
2023/04/19 10:17:07;;;;;;;6.25;2.90;;;;;;;15.89;42.63;101393.38;5080938;28;20070;-67
2023/04/19 10:19:34;;;;;;;5.13;3.28;;;;;;;15.92;40.92;101372.44;5078732;28;20141;-67
2023/04/19 10:22:04;;;;;;;6.05;3.53;;;;;;;16.07;42.56;101402.56;5073942;28;20131;-65
2023/04/19 10:24:30;;;;;;;5.15;3.05;;;;;;;16.13;42.67;101399.84;5077141;28;20063;-66
2023/04/19 10:27:12;;;;;;;4.70;2.50;;;;;;;16.17;42.99;101397.16;5074508;28;20052;-66
2023/04/19 10:30:00;;;;;;;7.65;2.88;;;;;;;16.30;41.63;101390.75;5075491;28;20032;-67
2023/04/19 10:32:37;;;;;;;5.75;3.22;;;;;;;16.22;43.73;101426.59;5072426;28;20162;-66
2023/04/19 10:35:07;;;;;;;5.15;3.15;;;;;;;16.18;43.38;101439.72;5079403;28;20315;-67
2023/04/19 10:37:33;;;;;;;5.68;3.67;;;;;;;16.12;43.13;101421.56;5084298;28;20047;-66
2023/04/19 10:39:59;;;;;;;6.65;3.60;;;;;;;15.99;44.38;101449.66;5070336;28;20036;-66
2023/04/19 10:42:24;;;;;;;5.78;3.90;;;;;;;15.98;44.97;101455.78;5072733;28;20029;-67
2023/04/19 10:45:27;;;;;;;6.72;3.67;;;;;;;15.99;43.85;101430.56;5073912;28;20040;-67
2023/04/19 10:47:52;;;;;;;6.97;4.00;;;;;;;16.09;45.39;101453.78;5073740;28;20073;-66
2023/04/19 10:50:18;;;;;;;6.93;3.50;;;;;;;16.06;43.64;101422.56;5075019;28;20143;-67
2023/04/19 10:52:43;;;;;;;5.18;3.72;;;;;;;16.34;44.75;101454.16;5081556;28;20043;-67
2023/04/19 10:55:14;;;;;;;8.32;3.22;;;;;;;16.39;43.41;101413.16;5068422;28;20036;-66
2023/04/19 10:58:02;;;;;;;13.50;4.75;;;;;;;16.33;42.99;101403.72;5068509;28;20078;-66
2023/04/19 11:00:30;;;;;;;7.00;3.58;;;;;;;16.41;43.92;101413.16;5081186;28;20036;-66
2023/04/19 11:02:55;;;;;;;7.10;3.83;;;;;;;16.38;44.64;101427.13;5077326;28;20099;-67
2023/04/19 11:05:21;;;;;;;8.27;4.13;;;;;;;16.42;44.33;101413.09;5084440;28;20489;-67
2023/04/19 11:07:46;;;;;;;7.22;4.32;;;;;;;16.37;43.52;101388.00;5075316;28;20048;-66
2023/04/19 11:10:12;;;;;;;6.10;4.32;;;;;;;16.47;43.09;101384.31;5074787;28;20040;-66
2023/04/19 11:12:41;;;;;;;8.77;4.60;;;;;;;16.61;44.35;101406.59;5071555;27;20047;-67
2023/04/19 11:15:08;;;;;;;5.28;3.90;;;;;;;16.72;43.99;101398.50;5076330;28;20036;-67